createdAt,value
2023-03-05T00:00:05.504Z,58.44
2023-03-05T00:03:01.539Z,57.91
2023-03-05T00:05:30.020Z,57.96
2023-03-05T00:07:58.416Z,58.00
2023-03-05T00:10:26.892Z,58.14
2023-03-05T00:12:55.279Z,58.19
2023-03-05T00:15:23.608Z,58.96
2023-03-05T00:17:51.850Z,59.62
2023-03-05T00:20:20.334Z,59.52
2023-03-05T00:22:48.611Z,60.02
2023-03-05T00:25:16.991Z,59.68
2023-03-05T00:27:45.389Z,59.50
2023-03-05T00:30:14.814Z,59.31
2023-03-05T00:32:43.168Z,58.98
2023-03-05T00:35:12.888Z,59.04
2023-03-05T00:37:41.481Z,58.87
2023-03-05T00:40:10.993Z,58.70
2023-03-05T00:42:39.367Z,58.59
2023-03-05T00:45:09.876Z,58.49
2023-03-05T00:47:39.527Z,58.67
2023-03-05T00:50:09.465Z,58.58
2023-03-05T00:52:37.815Z,58.80
2023-03-05T00:55:06.596Z,59.17
2023-03-05T00:57:35.100Z,59.26
2023-03-05T01:00:05.037Z,59.29
2023-03-05T01:02:34.806Z,59.28
2023-03-05T01:05:03.862Z,58.93
2023-03-05T01:07:32.308Z,58.94
2023-03-05T01:10:00.793Z,58.87
2023-03-05T01:12:29.071Z,59.02
2023-03-05T01:14:57.478Z,58.65
2023-03-05T01:17:25.735Z,58.52
2023-03-05T01:19:54.215Z,58.24
2023-03-05T01:22:22.502Z,57.90
2023-03-05T01:24:50.680Z,58.03
2023-03-05T01:27:22.538Z,58.31
2023-03-05T01:29:51.331Z,58.38
2023-03-05T01:32:19.520Z,58.94
2023-03-05T01:34:47.898Z,58.98
2023-03-05T01:37:16.282Z,58.95
2023-03-05T01:39:45.389Z,59.03
2023-03-05T01:42:13.873Z,59.26
2023-03-05T01:45:12.702Z,59.10
2023-03-05T01:47:41.339Z,59.41
2023-03-05T01:50:14.440Z,59.18
2023-03-05T01:52:49.574Z,59.32
2023-03-05T01:55:22.860Z,59.00
2023-03-05T01:57:58.089Z,58.98
2023-03-05T02:00:46.175Z,59.23
2023-03-05T02:03:14.833Z,59.29
2023-03-05T02:05:44.684Z,58.97
2023-03-05T02:08:16.308Z,58.96
2023-03-05T02:10:56.622Z,59.22
2023-03-05T02:13:31.815Z,59.03
2023-03-05T02:16:01.771Z,59.58
2023-03-05T02:18:30.930Z,59.48
2023-03-05T02:21:04.939Z,59.78
2023-03-05T02:23:36.591Z,59.87
2023-03-05T02:26:10.611Z,59.65
2023-03-05T02:28:43.415Z,59.78
2023-03-05T02:31:24.304Z,59.80
2023-03-05T02:33:54.183Z,60.02
2023-03-05T02:36:23.695Z,60.23
2023-03-05T02:38:53.800Z,59.98
2023-03-05T02:41:22.322Z,60.20
2023-03-05T02:43:51.568Z,59.85
2023-03-05T02:46:20.204Z,59.97
2023-03-05T02:48:50.225Z,60.00
2023-03-05T02:51:19.703Z,59.92
2023-03-05T02:53:48.830Z,59.99
2023-03-05T02:56:18.135Z,59.96
2023-03-05T02:58:46.520Z,60.12
2023-03-05T03:01:14.772Z,60.21
2023-03-05T03:03:43.092Z,60.28
2023-03-05T03:06:11.686Z,60.23
2023-03-05T03:08:39.874Z,60.35
2023-03-05T03:11:11.253Z,60.51
2023-03-05T03:13:40.363Z,60.64
2023-03-05T03:16:11.935Z,60.78
2023-03-05T03:18:40.248Z,60.80
2023-03-05T03:21:08.636Z,60.75
2023-03-05T03:23:37.018Z,60.97
2023-03-05T03:26:06.018Z,61.00
2023-03-05T03:28:34.710Z,60.99
2023-03-05T03:31:03.158Z,61.00
2023-03-05T03:33:32.011Z,61.00
2023-03-05T03:36:00.628Z,60.97
2023-03-05T03:38:28.974Z,61.07
2023-03-05T03:40:57.453Z,61.10
2023-03-05T03:43:25.834Z,61.21
2023-03-05T03:45:54.698Z,61.28
2023-03-05T03:48:23.943Z,61.17
2023-03-05T03:50:52.423Z,61.10
2023-03-05T03:53:20.911Z,61.27
2023-03-05T03:55:49.608Z,61.26
2023-03-05T03:58:18.192Z,61.26
2023-03-05T04:00:46.684Z,61.17
2023-03-05T04:03:14.872Z,61.24
2023-03-05T04:05:43.354Z,61.28
2023-03-05T04:08:12.863Z,61.25
2023-03-05T04:10:41.443Z,61.29
2023-03-05T04:13:09.727Z,61.61
2023-03-05T04:15:38.348Z,62.03
2023-03-05T04:18:06.906Z,61.94
2023-03-05T04:20:35.490Z,62.11
2023-03-05T04:23:03.887Z,62.11
2023-03-05T04:25:36.461Z,62.10
2023-03-05T04:28:05.574Z,62.24
2023-03-05T04:30:34.151Z,62.28
2023-03-05T04:33:02.839Z,62.26
2023-03-05T04:35:31.760Z,62.45
2023-03-05T04:38:00.215Z,62.27
2023-03-05T04:40:28.819Z,62.33
2023-03-05T04:42:57.197Z,62.38
2023-03-05T04:45:25.680Z,62.23
2023-03-05T04:47:54.479Z,62.15
2023-03-05T04:50:23.063Z,62.05
2023-03-05T04:52:51.547Z,62.05
2023-03-05T04:55:20.601Z,62.12
2023-03-05T04:57:49.042Z,62.04
2023-03-05T05:00:18.557Z,61.84
2023-03-05T05:02:48.955Z,62.06
2023-03-05T05:05:19.918Z,61.99
2023-03-05T05:07:48.399Z,61.84
2023-03-05T05:10:17.613Z,61.70
2023-03-05T05:12:46.091Z,61.94
2023-03-05T05:15:14.790Z,62.33
2023-03-05T05:17:43.369Z,62.30
2023-03-05T05:20:14.377Z,62.15
2023-03-05T05:22:43.321Z,62.25
2023-03-05T05:25:12.520Z,62.39
2023-03-05T05:27:41.388Z,62.17
2023-03-05T05:30:10.851Z,62.15
2023-03-05T05:32:39.278Z,62.19
2023-03-05T05:35:08.252Z,62.00
2023-03-05T05:37:37.060Z,62.17
2023-03-05T05:40:06.785Z,62.38
2023-03-05T05:42:37.248Z,62.46
2023-03-05T05:45:06.358Z,62.51
2023-03-05T05:47:34.861Z,62.29
2023-03-05T05:50:21.261Z,62.29
2023-03-05T05:53:31.686Z,62.52
2023-03-05T05:56:40.563Z,62.30
2023-03-05T05:59:51.333Z,62.18
2023-03-05T06:02:19.772Z,62.25
2023-03-05T06:07:55.079Z,62.53
2023-03-05T06:10:23.552Z,62.50
2023-03-05T06:13:37.914Z,62.55
2023-03-05T06:16:26.069Z,62.65
2023-03-05T06:18:54.411Z,62.62
2023-03-05T06:21:23.976Z,62.56
2023-03-05T06:23:52.866Z,62.72
2023-03-05T06:26:50.701Z,62.55
2023-03-05T06:29:52.705Z,62.52
2023-03-05T06:32:21.356Z,62.38
2023-03-05T06:34:50.412Z,62.24
2023-03-05T06:37:19.315Z,61.96
2023-03-05T06:39:48.304Z,61.93
2023-03-05T06:42:19.771Z,61.72
2023-03-05T06:44:48.439Z,61.81
2023-03-05T06:47:17.468Z,61.49
2023-03-05T06:49:45.728Z,61.29
2023-03-05T06:52:14.159Z,60.86
2023-03-05T06:54:42.604Z,60.16
2023-03-05T06:57:11.297Z,59.37
2023-03-05T06:59:39.678Z,59.04
2023-03-05T07:02:11.443Z,58.22
2023-03-05T07:04:40.639Z,57.67
2023-03-05T07:07:08.931Z,56.65
2023-03-05T07:09:43.146Z,56.03
2023-03-05T07:12:12.302Z,55.31
2023-03-05T07:14:40.828Z,54.86
2023-03-05T07:17:09.016Z,54.49
2023-03-05T07:19:38.421Z,53.55
2023-03-05T07:22:08.137Z,52.41
2023-03-05T07:24:36.828Z,51.97
2023-03-05T07:27:05.849Z,51.28
2023-03-05T07:29:34.207Z,50.43
2023-03-05T07:32:03.145Z,49.89
2023-03-05T07:34:31.603Z,49.27
2023-03-05T07:36:59.870Z,48.57
2023-03-05T07:39:28.362Z,48.77
2023-03-05T07:41:56.956Z,48.43
2023-03-05T07:44:29.025Z,47.96
2023-03-05T07:46:57.503Z,47.23
2023-03-05T07:49:26.200Z,43.94
2023-03-05T07:51:54.476Z,42.18
2023-03-05T07:54:23.276Z,42.49
2023-03-05T07:56:51.987Z,43.67
2023-03-05T07:59:20.961Z,43.76
2023-03-05T08:01:49.448Z,44.22
2023-03-05T08:04:17.759Z,43.71
2023-03-05T08:06:47.451Z,43.94
2023-03-05T08:09:17.123Z,43.55
2023-03-05T08:11:48.924Z,43.06
2023-03-05T08:14:19.469Z,42.76
2023-03-05T08:16:52.447Z,42.50
2023-03-05T08:19:21.442Z,41.77
2023-03-05T08:21:50.140Z,42.05
2023-03-05T08:24:18.420Z,42.56
2023-03-05T08:26:46.699Z,42.34
2023-03-05T08:29:15.185Z,42.34
2023-03-05T08:31:46.708Z,42.24
2023-03-05T08:34:15.345Z,41.61
2023-03-05T08:36:43.724Z,41.57
2023-03-05T08:39:12.107Z,41.46
2023-03-05T08:41:40.891Z,41.55
2023-03-05T08:44:09.730Z,40.78
2023-03-05T08:46:40.651Z,40.53
2023-03-05T08:49:11.128Z,40.77
2023-03-05T08:51:39.444Z,40.32
2023-03-05T08:54:08.649Z,40.68
2023-03-05T08:56:37.368Z,41.20
2023-03-05T08:59:06.737Z,41.45
2023-03-05T09:01:35.083Z,41.20
2023-03-05T09:04:04.220Z,39.64
2023-03-05T09:06:34.558Z,39.60
2023-03-05T09:09:03.049Z,39.51
2023-03-05T09:11:31.332Z,39.69
2023-03-05T09:13:59.632Z,40.02
2023-03-05T09:16:28.351Z,40.27
2023-03-05T09:18:56.994Z,39.34
2023-03-05T09:21:26.085Z,38.94
2023-03-05T09:23:59.736Z,39.38
2023-03-05T09:26:28.185Z,38.77
2023-03-05T09:28:57.089Z,38.89
2023-03-05T09:31:25.610Z,37.98
2023-03-05T09:33:53.872Z,37.64
2023-03-05T09:36:28.782Z,38.61
2023-03-05T09:38:58.739Z,38.73
2023-03-05T09:41:38.039Z,38.78
2023-03-05T09:44:12.259Z,38.98
2023-03-05T09:47:25.461Z,38.54
2023-03-05T09:50:38.742Z,38.50
2023-03-05T09:53:26.288Z,38.82
2023-03-05T09:56:11.256Z,38.38
2023-03-05T09:58:41.384Z,37.53
2023-03-05T10:01:15.504Z,37.89
2023-03-05T10:04:06.068Z,38.27
2023-03-05T10:06:58.832Z,38.61
2023-03-05T10:09:50.854Z,38.50
2023-03-05T10:12:25.469Z,37.82
2023-03-05T10:14:54.967Z,37.31
2023-03-05T10:17:23.268Z,38.10
2023-03-05T10:20:07.513Z,37.79
2023-03-05T10:22:54.114Z,38.40
2023-03-05T10:25:52.391Z,37.65
2023-03-05T10:28:46.022Z,37.55
2023-03-05T10:31:38.560Z,37.46
2023-03-05T10:34:28.152Z,37.11
2023-03-05T10:37:19.039Z,36.83
2023-03-05T10:40:15.458Z,37.33
2023-03-05T10:42:53.577Z,38.03
2023-03-05T10:45:29.535Z,38.16
2023-03-05T10:48:21.859Z,38.00
2023-03-05T10:51:03.356Z,38.28
2023-03-05T10:53:59.478Z,38.50
2023-03-05T10:56:31.945Z,38.31
2023-03-05T10:59:00.735Z,37.67
2023-03-05T11:01:31.909Z,37.84
2023-03-05T11:04:10.801Z,37.57
2023-03-05T11:06:47.477Z,38.18
2023-03-05T11:09:32.942Z,37.90
2023-03-05T11:12:07.060Z,36.37
2023-03-05T11:14:38.956Z,37.05
2023-03-05T11:17:24.298Z,37.04
2023-03-05T11:19:52.534Z,37.59
2023-03-05T11:22:25.166Z,37.89
2023-03-05T11:25:06.164Z,37.84
2023-03-05T11:27:39.831Z,37.52
2023-03-05T11:30:22.035Z,37.80
2023-03-05T11:32:50.518Z,37.60
2023-03-05T11:35:32.881Z,37.91
2023-03-05T11:38:06.729Z,38.08
2023-03-05T11:40:36.061Z,38.19
2023-03-05T11:43:05.483Z,38.19
2023-03-05T11:45:37.000Z,38.03
2023-03-05T11:48:28.783Z,37.62
2023-03-05T11:51:01.831Z,37.51
2023-03-05T11:53:35.698Z,37.81
2023-03-05T11:56:21.310Z,37.49
2023-03-05T11:59:27.962Z,37.13
2023-03-05T12:01:58.295Z,36.15
2023-03-05T12:04:26.676Z,36.47
2023-03-05T12:07:00.680Z,36.85
2023-03-05T12:09:43.143Z,37.02
2023-03-05T12:12:38.709Z,37.12
2023-03-05T12:15:18.962Z,36.93
2023-03-05T12:18:07.703Z,37.11
2023-03-05T12:20:45.126Z,36.73
2023-03-05T12:23:20.233Z,36.87
2023-03-05T12:25:57.932Z,37.26
2023-03-05T12:28:31.941Z,37.24
2023-03-05T12:31:53.187Z,37.39
2023-03-05T12:34:40.480Z,37.32
2023-03-05T12:37:22.335Z,36.93
2023-03-05T12:40:08.965Z,36.87
2023-03-05T12:42:46.483Z,36.67
2023-03-05T12:45:16.332Z,36.94
2023-03-05T12:48:12.173Z,36.77
2023-03-05T12:50:40.754Z,36.50
2023-03-05T12:53:17.023Z,36.80
2023-03-05T12:55:51.259Z,36.87
2023-03-05T12:58:31.999Z,36.70
2023-03-05T13:01:38.146Z,36.84
2023-03-05T13:04:25.252Z,36.34
2023-03-05T13:07:14.245Z,36.45
2023-03-05T13:09:52.902Z,36.71
2023-03-05T13:12:22.194Z,36.94
2023-03-05T13:14:59.676Z,37.12
2023-03-05T13:17:35.374Z,37.28
2023-03-05T13:20:24.219Z,37.36
2023-03-05T13:23:23.815Z,37.69
2023-03-05T13:26:02.497Z,37.67
2023-03-05T13:28:32.780Z,37.57
2023-03-05T13:31:04.212Z,37.42
2023-03-05T13:33:35.555Z,37.38
2023-03-05T13:36:05.206Z,37.45
2023-03-05T13:38:39.199Z,37.63
2023-03-05T13:41:11.264Z,37.54
2023-03-05T13:43:45.502Z,37.73
2023-03-05T13:46:13.986Z,37.75
2023-03-05T13:48:42.650Z,37.80
2023-03-05T13:51:12.166Z,38.02
2023-03-05T13:53:40.548Z,37.86
2023-03-05T13:56:15.908Z,37.81
2023-03-05T13:58:49.714Z,37.79
2023-03-05T14:01:25.379Z,38.02
2023-03-05T14:03:59.275Z,37.95
2023-03-05T14:06:31.128Z,38.42
2023-03-05T14:09:09.198Z,38.46
2023-03-05T14:11:37.413Z,38.58
2023-03-05T14:14:17.725Z,38.79
2023-03-05T14:16:57.563Z,38.37
2023-03-05T14:19:39.111Z,38.52
2023-03-05T14:22:37.459Z,38.62
2023-03-05T14:25:40.447Z,38.65
2023-03-05T14:28:17.623Z,38.63
2023-03-05T14:30:48.920Z,38.61
2023-03-05T14:33:27.082Z,38.60
2023-03-05T14:35:57.784Z,38.66
2023-03-05T14:38:31.941Z,38.59
2023-03-05T14:41:20.589Z,38.72
2023-03-05T14:43:49.301Z,38.99
2023-03-05T14:46:17.693Z,39.00
2023-03-05T14:48:47.173Z,39.31
2023-03-05T14:51:15.964Z,39.42
2023-03-05T14:53:51.208Z,39.27
2023-03-05T14:56:26.552Z,39.04
2023-03-05T14:58:57.662Z,39.41
2023-03-05T15:01:26.216Z,39.65
2023-03-05T15:03:54.774Z,39.49
2023-03-05T15:06:36.770Z,39.87
2023-03-05T15:09:06.523Z,40.03
2023-03-05T15:11:35.277Z,40.25
2023-03-05T15:14:04.349Z,40.42
2023-03-05T15:16:33.094Z,40.36
2023-03-05T15:19:03.606Z,40.59
2023-03-05T15:21:31.776Z,40.72
2023-03-05T15:24:00.095Z,40.51
2023-03-05T15:26:28.342Z,40.44
2023-03-05T15:31:26.198Z,40.52
2023-03-05T15:33:54.515Z,40.54
2023-03-05T15:36:23.208Z,40.66
2023-03-05T15:38:52.319Z,40.70
2023-03-05T15:41:22.540Z,41.08
2023-03-05T15:43:52.050Z,41.01
2023-03-05T15:46:20.568Z,41.22
2023-03-05T15:48:50.559Z,41.46
2023-03-05T15:51:20.380Z,41.45
2023-03-05T15:53:48.863Z,41.89
2023-03-05T15:56:18.965Z,42.12
2023-03-05T15:58:50.796Z,42.21
2023-03-05T16:01:20.383Z,42.05
2023-03-05T16:03:48.637Z,42.46
2023-03-05T16:06:22.558Z,42.56
2023-03-05T16:08:54.719Z,42.85
2023-03-05T16:11:23.521Z,42.78
2023-03-05T16:13:52.211Z,42.84
2023-03-05T16:16:23.717Z,42.97
2023-03-05T16:18:53.873Z,43.12
2023-03-05T16:21:22.274Z,43.26
2023-03-05T16:23:50.873Z,43.25
2023-03-05T16:26:19.657Z,43.40
2023-03-05T16:28:58.897Z,43.80
2023-03-05T16:31:44.782Z,43.62
2023-03-05T16:34:19.594Z,43.72
2023-03-05T16:36:53.108Z,43.96
2023-03-05T16:39:22.186Z,43.99
2023-03-05T16:41:50.908Z,44.02
2023-03-05T16:44:20.075Z,44.14
2023-03-05T16:46:53.457Z,44.41
2023-03-05T16:49:22.808Z,44.54
2023-03-05T16:51:51.206Z,44.65
2023-03-05T16:54:19.473Z,44.63
2023-03-05T16:56:47.862Z,44.78
2023-03-05T16:59:16.246Z,44.72
2023-03-05T17:01:45.040Z,44.86
2023-03-05T17:04:13.657Z,44.88
2023-03-05T17:06:46.789Z,44.97
2023-03-05T17:09:15.542Z,45.15
2023-03-05T17:11:44.002Z,45.18
2023-03-05T17:14:12.486Z,45.03
2023-03-05T17:16:40.832Z,45.19
2023-03-05T17:19:09.302Z,45.26
2023-03-05T17:21:37.841Z,45.55
2023-03-05T17:24:06.743Z,45.60
2023-03-05T17:26:38.320Z,45.49
2023-03-05T17:29:07.462Z,45.63
2023-03-05T17:31:35.791Z,45.50
2023-03-05T17:34:04.403Z,45.76
2023-03-05T17:36:32.868Z,45.67
2023-03-05T17:39:01.760Z,45.54
2023-03-05T17:41:30.241Z,45.84
2023-03-05T17:43:58.933Z,45.84
2023-03-05T17:46:27.925Z,46.41
2023-03-05T17:48:56.317Z,46.66
2023-03-05T17:51:28.173Z,46.60
2023-03-05T17:53:56.560Z,46.63
2023-03-05T17:56:27.930Z,46.74
2023-03-05T17:58:56.898Z,47.08
2023-03-05T18:01:28.829Z,46.98
2023-03-05T18:03:57.811Z,47.25
2023-03-05T18:06:26.272Z,47.51
2023-03-05T18:08:54.751Z,47.47
2023-03-05T18:11:23.567Z,47.49
2023-03-05T18:13:52.028Z,47.42
2023-03-05T18:16:21.588Z,47.56
2023-03-05T18:18:49.937Z,47.80
2023-03-05T18:21:23.835Z,47.56
2023-03-05T18:23:52.330Z,47.56
2023-03-05T18:26:20.533Z,47.55
2023-03-05T18:28:48.879Z,47.57
2023-03-05T18:31:19.025Z,47.49
2023-03-05T18:33:47.303Z,47.41
2023-03-05T18:36:15.570Z,47.34
2023-03-05T18:38:44.893Z,47.53
2023-03-05T18:41:20.657Z,47.90
2023-03-05T18:43:49.180Z,48.18
2023-03-05T18:46:18.397Z,48.26
2023-03-05T18:48:48.196Z,48.26
2023-03-05T18:51:19.854Z,48.45
2023-03-05T18:53:48.499Z,48.62
2023-03-05T18:56:17.390Z,48.63
2023-03-05T18:58:46.660Z,48.78
2023-03-05T19:01:17.723Z,48.79
2023-03-05T19:03:47.146Z,48.75
2023-03-05T19:06:17.903Z,48.84
2023-03-05T19:08:46.871Z,48.82
2023-03-05T19:11:17.862Z,48.75
2023-03-05T19:13:57.158Z,48.61
2023-03-05T19:16:29.530Z,48.73
2023-03-05T19:19:16.682Z,48.61
2023-03-05T19:21:50.642Z,48.53
2023-03-05T19:24:18.839Z,48.68
2023-03-05T19:26:48.088Z,48.58
2023-03-05T19:29:16.624Z,48.46
2023-03-05T19:31:45.117Z,48.70
2023-03-05T19:34:14.109Z,48.87
2023-03-05T19:36:42.428Z,48.92
2023-03-05T19:39:10.875Z,48.91
2023-03-05T19:41:40.391Z,49.13
2023-03-05T19:44:08.771Z,49.10
2023-03-05T19:46:37.333Z,49.02
2023-03-05T19:49:06.059Z,49.14
2023-03-05T19:51:35.046Z,49.55
2023-03-05T19:54:04.660Z,49.76
2023-03-05T19:56:33.460Z,49.95
2023-03-05T19:59:02.046Z,49.92
2023-03-05T20:01:30.480Z,50.05
2023-03-05T20:04:01.063Z,50.14
2023-03-05T20:06:31.697Z,50.20
2023-03-05T20:09:00.356Z,50.22
2023-03-05T20:11:29.056Z,50.49
2023-03-05T20:13:57.977Z,50.44
2023-03-05T20:16:32.023Z,50.35
2023-03-05T20:19:06.733Z,50.25
2023-03-05T20:21:50.266Z,50.45
2023-03-05T20:24:44.980Z,50.28
2023-03-05T20:27:15.166Z,50.42
2023-03-05T20:29:43.468Z,50.50
2023-03-05T20:32:11.976Z,50.62
2023-03-05T20:34:40.523Z,50.85
2023-03-05T20:37:09.740Z,50.70
2023-03-05T20:39:38.413Z,50.77
2023-03-05T20:42:07.792Z,50.98
2023-03-05T20:44:37.137Z,51.04
2023-03-05T20:47:41.707Z,51.34
2023-03-05T20:50:11.680Z,51.36
2023-03-05T20:52:40.942Z,51.38
2023-03-05T20:55:11.965Z,51.37
2023-03-05T20:57:42.036Z,51.45
2023-03-05T21:00:11.544Z,51.11
2023-03-05T21:02:40.187Z,51.29
2023-03-05T21:05:09.274Z,51.31
2023-03-05T21:07:37.516Z,51.46
2023-03-05T21:10:06.989Z,51.67
2023-03-05T21:12:35.616Z,51.85
2023-03-05T21:15:04.861Z,52.17
2023-03-05T21:17:33.309Z,51.91
2023-03-05T21:20:02.009Z,52.04
2023-03-05T21:22:30.285Z,52.09
2023-03-05T21:25:23.435Z,52.01
2023-03-05T21:27:59.497Z,52.19
2023-03-05T21:30:43.695Z,52.30
2023-03-05T21:33:13.593Z,52.43
2023-03-05T21:35:43.128Z,52.53
2023-03-05T21:38:12.176Z,52.59
2023-03-05T21:40:45.702Z,52.48
2023-03-05T21:43:17.869Z,52.70
2023-03-05T21:45:47.745Z,52.76
2023-03-05T21:48:16.864Z,52.82
2023-03-05T21:50:46.887Z,52.95
2023-03-05T21:53:16.910Z,53.05
2023-03-05T21:56:18.037Z,53.29
2023-03-05T21:58:52.977Z,53.66
2023-03-05T22:01:22.009Z,53.59
2023-03-05T22:03:50.605Z,54.14
2023-03-05T22:06:19.962Z,54.17
2023-03-05T22:08:48.692Z,54.14
2023-03-05T22:11:19.354Z,53.99
2023-03-05T22:13:47.967Z,54.01
2023-03-05T22:16:27.649Z,54.10
2023-03-05T22:18:55.900Z,53.85
2023-03-05T22:21:28.760Z,54.22
2023-03-05T22:23:58.509Z,54.36
2023-03-05T22:26:35.551Z,54.26
2023-03-05T22:29:05.100Z,54.26
2023-03-05T22:31:33.470Z,54.18
2023-03-05T22:34:01.849Z,54.19
2023-03-05T22:36:30.441Z,54.06
2023-03-05T22:38:58.737Z,53.94
2023-03-05T22:41:27.520Z,53.95
2023-03-05T22:43:56.022Z,54.02
2023-03-05T22:46:26.393Z,54.21
2023-03-05T22:48:54.839Z,54.09
2023-03-05T22:51:23.720Z,53.89
2023-03-05T22:53:52.116Z,54.03
2023-03-05T22:56:21.643Z,54.32
2023-03-05T22:58:50.196Z,54.19
2023-03-05T23:01:24.409Z,54.22
2023-03-05T23:04:44.684Z,54.18
2023-03-05T23:07:13.128Z,54.59
2023-03-05T23:09:41.473Z,54.60
2023-03-05T23:12:12.637Z,54.74
2023-03-05T23:14:40.893Z,54.98
2023-03-05T23:17:09.181Z,55.30
2023-03-05T23:19:39.773Z,55.38
2023-03-05T23:22:10.393Z,55.75
2023-03-05T23:24:40.062Z,55.51
2023-03-05T23:27:10.970Z,55.55
2023-03-05T23:30:17.686Z,55.57
2023-03-05T23:32:53.305Z,55.65
2023-03-05T23:35:25.208Z,55.53
2023-03-05T23:37:56.117Z,55.65
2023-03-05T23:40:30.854Z,55.76
2023-03-05T23:42:59.736Z,55.95
2023-03-05T23:45:29.507Z,55.83
2023-03-05T23:47:58.250Z,55.93
2023-03-05T23:50:29.603Z,55.98
2023-03-05T23:52:59.524Z,56.16
2023-03-05T23:55:33.230Z,56.06
2023-03-05T23:58:02.909Z,56.17
